createdAt,value
2023-03-04T00:00:35.748Z,4.55
2023-03-04T00:03:03.609Z,2.95
2023-03-04T00:05:31.338Z,6.20
2023-03-04T00:07:59.022Z,7.60
2023-03-04T00:10:26.777Z,3.95
2023-03-04T00:12:54.596Z,10.43
2023-03-04T00:15:22.306Z,5.53
2023-03-04T00:17:51.738Z,5.28
2023-03-04T00:20:19.581Z,6.00
2023-03-04T00:22:48.091Z,6.45
2023-03-04T00:25:15.983Z,3.85
2023-03-04T00:27:43.728Z,9.18
2023-03-04T00:30:12.396Z,12.20
2023-03-04T00:32:40.933Z,10.88
2023-03-04T00:35:10.623Z,10.20
2023-03-04T00:37:38.421Z,5.72
2023-03-04T00:40:07.508Z,6.47
2023-03-04T00:42:35.913Z,5.50
2023-03-04T00:45:04.194Z,8.40
2023-03-04T00:47:31.987Z,10.68
2023-03-04T00:49:59.750Z,6.10
2023-03-04T00:52:29.004Z,6.53
2023-03-04T00:54:56.801Z,4.93
2023-03-04T00:57:24.569Z,5.75
2023-03-04T00:59:52.420Z,7.95
2023-03-04T01:02:20.169Z,7.43
2023-03-04T01:04:47.898Z,8.85
2023-03-04T01:07:15.661Z,10.45
2023-03-04T01:09:44.808Z,7.47
2023-03-04T01:12:13.181Z,8.15
2023-03-04T01:14:40.936Z,4.07
2023-03-04T01:17:08.694Z,8.85
2023-03-04T01:19:36.508Z,6.80
2023-03-04T01:22:04.536Z,5.82
2023-03-04T01:24:32.279Z,9.45
2023-03-04T01:27:01.808Z,6.68
2023-03-04T01:29:30.320Z,6.20
2023-03-04T01:31:58.184Z,5.38
2023-03-04T01:34:26.021Z,9.48
2023-03-04T01:36:53.836Z,9.63
2023-03-04T01:39:21.685Z,8.65
2023-03-04T01:41:49.555Z,9.15
2023-03-04T01:44:18.770Z,11.60
2023-03-04T01:46:50.739Z,14.02
2023-03-04T01:49:19.131Z,10.13
2023-03-04T01:51:50.675Z,8.57
2023-03-04T01:54:18.872Z,8.68
2023-03-04T01:56:48.506Z,7.00
2023-03-04T01:59:20.057Z,5.75
2023-03-04T02:01:50.427Z,12.50
2023-03-04T02:04:21.675Z,6.20
2023-03-04T02:06:51.701Z,8.43
2023-03-04T02:09:20.668Z,7.80
2023-03-04T02:11:49.195Z,8.70
2023-03-04T02:14:19.711Z,7.10
2023-03-04T02:16:48.177Z,16.25
2023-03-04T02:19:26.679Z,6.22
2023-03-04T02:21:54.606Z,8.63
2023-03-04T02:24:28.256Z,9.32
2023-03-04T02:26:57.342Z,5.85
2023-03-04T02:29:25.157Z,11.55
2023-03-04T02:31:54.585Z,8.80
2023-03-04T02:34:24.766Z,8.07
2023-03-04T02:36:54.751Z,10.55
2023-03-04T02:39:26.340Z,8.73
2023-03-04T02:41:56.128Z,6.45
2023-03-04T02:44:27.143Z,7.55
2023-03-04T02:46:56.074Z,8.15
2023-03-04T02:49:26.489Z,7.30
2023-03-04T02:51:59.671Z,8.80
2023-03-04T02:54:27.462Z,9.70
2023-03-04T02:56:59.274Z,6.35
2023-03-04T02:59:28.489Z,14.15
2023-03-04T03:01:56.279Z,10.75
2023-03-04T03:04:25.622Z,10.38
2023-03-04T03:06:53.860Z,5.25
2023-03-04T03:09:22.073Z,10.13
2023-03-04T03:11:49.800Z,9.90
2023-03-04T03:14:17.755Z,7.70
2023-03-04T03:16:46.900Z,13.07
2023-03-04T03:19:14.599Z,11.18
2023-03-04T03:21:42.456Z,10.05
2023-03-04T03:24:10.203Z,11.93
2023-03-04T03:26:39.909Z,7.55
2023-03-04T03:29:07.729Z,13.25
2023-03-04T03:31:35.544Z,11.27
2023-03-04T03:34:04.846Z,13.30
2023-03-04T03:36:32.657Z,6.53
2023-03-04T03:39:00.461Z,7.88
2023-03-04T03:41:28.171Z,9.38
2023-03-04T03:43:55.887Z,6.38
2023-03-04T03:46:23.664Z,12.82
2023-03-04T03:48:51.453Z,7.85
2023-03-04T03:51:20.558Z,9.98
2023-03-04T03:53:48.313Z,7.00
2023-03-04T03:56:16.080Z,8.73
2023-03-04T03:58:43.855Z,7.85
2023-03-04T04:01:11.669Z,11.52
2023-03-04T04:03:39.837Z,14.95
2023-03-04T04:06:08.155Z,8.88
2023-03-04T04:08:37.475Z,12.05
2023-03-04T04:11:05.647Z,11.77
2023-03-04T04:13:33.324Z,10.65
2023-03-04T04:16:01.119Z,11.07
2023-03-04T04:18:28.887Z,10.35
2023-03-04T04:20:56.589Z,9.18
2023-03-04T04:23:24.367Z,9.85
2023-03-04T04:25:55.974Z,7.43
2023-03-04T04:28:23.783Z,11.60
2023-03-04T04:30:52.006Z,9.65
2023-03-04T04:33:19.784Z,9.80
2023-03-04T04:35:47.573Z,9.30
2023-03-04T04:38:15.287Z,8.73
2023-03-04T04:40:43.461Z,8.07
2023-03-04T04:43:12.581Z,9.23
2023-03-04T04:45:40.355Z,10.98
2023-03-04T04:48:08.967Z,11.07
2023-03-04T04:50:37.028Z,9.40
2023-03-04T04:53:04.820Z,8.95
2023-03-04T04:55:33.332Z,9.30
2023-03-04T04:58:01.029Z,14.25
2023-03-04T05:00:30.136Z,12.98
2023-03-04T05:02:57.986Z,12.10
2023-03-04T05:05:25.752Z,14.13
2023-03-04T05:07:53.508Z,10.88
2023-03-04T05:10:21.474Z,9.98
2023-03-04T05:12:49.831Z,22.52
2023-03-04T05:15:17.720Z,12.98
2023-03-04T05:17:46.785Z,19.70
2023-03-04T05:20:14.869Z,10.85
2023-03-04T05:22:42.668Z,14.25
2023-03-04T05:25:11.214Z,13.50
2023-03-04T05:27:38.895Z,15.02
2023-03-04T05:30:07.768Z,12.43
2023-03-04T05:32:35.541Z,12.18
2023-03-04T05:35:05.183Z,18.77
2023-03-04T05:37:32.958Z,12.48
2023-03-04T05:40:00.751Z,11.18
2023-03-04T05:42:28.578Z,15.75
2023-03-04T05:44:56.350Z,11.73
2023-03-04T05:47:24.182Z,9.20
2023-03-04T05:49:51.881Z,12.50
2023-03-04T05:52:21.048Z,20.35
2023-03-04T05:54:48.817Z,12.63
2023-03-04T05:57:16.557Z,12.38
2023-03-04T05:59:44.284Z,13.32
2023-03-04T06:02:12.023Z,15.10
2023-03-04T06:04:39.772Z,11.82
2023-03-04T06:07:07.536Z,15.32
2023-03-04T06:09:36.662Z,16.88
2023-03-04T06:12:04.384Z,21.30
2023-03-04T06:14:32.178Z,15.82
2023-03-04T06:16:59.951Z,16.50
2023-03-04T06:19:27.685Z,15.93
2023-03-04T06:21:55.457Z,15.68
2023-03-04T06:24:23.380Z,16.30
2023-03-04T06:26:52.506Z,13.23
2023-03-04T06:29:20.202Z,12.10
2023-03-04T06:31:47.942Z,9.20
2023-03-04T06:34:16.099Z,21.05
2023-03-04T06:36:43.842Z,13.93
2023-03-04T06:39:11.706Z,14.65
2023-03-04T06:41:39.965Z,17.75
2023-03-04T06:44:09.275Z,14.30
2023-03-04T06:46:37.321Z,18.38
2023-03-04T06:49:05.326Z,19.67
2023-03-04T06:51:33.089Z,20.77
2023-03-04T06:54:00.800Z,11.68
2023-03-04T06:56:28.709Z,15.73
2023-03-04T06:58:56.471Z,29.15
2023-03-04T07:01:28.675Z,16.73
2023-03-04T07:03:58.086Z,19.70
2023-03-04T07:06:29.060Z,24.20
2023-03-04T07:08:57.261Z,16.02
2023-03-04T07:11:25.604Z,16.05
2023-03-04T07:13:54.019Z,15.70
2023-03-04T07:16:23.711Z,17.88
2023-03-04T07:18:52.901Z,17.92
2023-03-04T07:21:20.635Z,15.77
2023-03-04T07:23:48.464Z,13.20
2023-03-04T07:26:16.289Z,17.17
2023-03-04T07:28:44.364Z,14.75
2023-03-04T07:31:14.281Z,14.30
2023-03-04T07:33:42.580Z,12.98
2023-03-04T07:36:13.111Z,22.27
2023-03-04T07:38:40.840Z,15.60
2023-03-04T07:41:08.616Z,18.27
2023-03-04T07:43:36.375Z,17.13
2023-03-04T07:46:04.255Z,15.20
2023-03-04T07:48:32.076Z,12.60
2023-03-04T07:51:07.483Z,16.63
2023-03-04T07:53:38.050Z,14.20
2023-03-04T07:56:07.571Z,20.02
2023-03-04T07:58:35.337Z,18.30
2023-03-04T08:01:03.126Z,19.88
2023-03-04T08:03:30.920Z,15.60
2023-03-04T08:06:00.370Z,15.02
2023-03-04T08:08:28.185Z,14.00
2023-03-04T08:10:57.875Z,16.70
2023-03-04T08:13:26.189Z,21.45
2023-03-04T08:15:56.738Z,14.13
2023-03-04T08:18:24.641Z,12.57
2023-03-04T08:20:52.565Z,10.80
2023-03-04T08:23:21.639Z,15.85
2023-03-04T08:25:49.770Z,14.27
2023-03-04T08:28:19.236Z,21.27
2023-03-04T08:30:53.185Z,21.05
2023-03-04T08:33:21.039Z,11.60
2023-03-04T08:35:49.286Z,13.93
2023-03-04T08:38:17.095Z,12.10
2023-03-04T08:40:44.817Z,16.38
2023-03-04T08:43:12.573Z,16.70
2023-03-04T08:45:41.828Z,13.88
2023-03-04T08:48:09.646Z,26.63
2023-03-04T08:50:38.320Z,14.85
2023-03-04T08:53:06.641Z,12.88
2023-03-04T08:55:34.785Z,14.98
2023-03-04T08:58:02.882Z,15.68
2023-03-04T09:00:30.937Z,10.88
2023-03-04T09:03:01.615Z,15.02
2023-03-04T09:05:30.262Z,11.18
2023-03-04T09:07:57.995Z,10.77
2023-03-04T09:10:26.149Z,11.77
2023-03-04T09:12:53.823Z,9.30
2023-03-04T09:15:21.632Z,13.27
2023-03-04T09:17:49.396Z,10.65
2023-03-04T09:20:18.442Z,9.93
2023-03-04T09:22:46.189Z,9.50
2023-03-04T09:25:16.047Z,6.68
2023-03-04T09:27:43.790Z,9.23
2023-03-04T09:30:12.991Z,9.48
2023-03-04T09:32:41.394Z,6.55
2023-03-04T09:35:10.158Z,10.13
2023-03-04T09:37:41.436Z,7.82
2023-03-04T09:40:17.380Z,11.32
2023-03-04T09:42:48.155Z,11.07
2023-03-04T09:45:19.529Z,15.27
2023-03-04T09:47:49.605Z,7.22
2023-03-04T09:50:18.963Z,17.58
2023-03-04T09:53:03.098Z,14.05
2023-03-04T09:55:36.151Z,6.78
2023-03-04T09:58:11.354Z,9.05
2023-03-04T10:00:43.097Z,10.70
2023-03-04T10:03:19.494Z,11.60
2023-03-04T10:05:55.758Z,7.47
2023-03-04T10:08:39.367Z,10.88
2023-03-04T10:11:14.525Z,13.20
2023-03-04T10:13:51.732Z,7.80
2023-03-04T10:16:23.988Z,8.50
2023-03-04T10:18:56.845Z,7.60
2023-03-04T10:21:31.006Z,5.60
2023-03-04T10:24:02.768Z,10.93
2023-03-04T10:26:33.467Z,6.53
2023-03-04T10:29:03.033Z,5.70
2023-03-04T10:31:36.647Z,17.67
2023-03-04T10:34:05.244Z,5.75
2023-03-04T10:36:47.452Z,5.30
2023-03-04T10:39:20.877Z,6.55
2023-03-04T10:44:24.412Z,5.65
2023-03-04T10:46:55.182Z,6.47
2023-03-04T10:49:24.817Z,7.25
2023-03-04T10:51:56.513Z,3.97
2023-03-04T10:54:29.855Z,3.50
2023-03-04T10:59:45.996Z,4.50
2023-03-04T11:02:33.026Z,8.05
2023-03-04T11:05:17.496Z,7.03
2023-03-04T11:07:55.064Z,13.07
2023-03-04T11:10:29.869Z,11.93
2023-03-04T11:13:01.935Z,10.60
2023-03-04T11:15:50.776Z,8.75
2023-03-04T11:18:23.456Z,11.57
2023-03-04T11:20:52.753Z,11.10
2023-03-04T11:23:29.455Z,12.50
2023-03-04T11:26:02.858Z,4.53
2023-03-04T11:28:45.684Z,6.60
2023-03-04T11:31:18.476Z,5.80
2023-03-04T11:33:54.249Z,8.18
2023-03-04T11:36:33.876Z,4.93
2023-03-04T11:39:04.206Z,4.60
2023-03-04T11:41:35.725Z,5.00
2023-03-04T11:44:07.131Z,6.00
2023-03-04T11:47:05.079Z,8.52
2023-03-04T11:49:52.602Z,5.47
2023-03-04T11:52:29.577Z,11.13
2023-03-04T11:55:13.861Z,8.80
2023-03-04T11:57:51.853Z,5.88
2023-03-04T12:00:36.866Z,6.82
2023-03-04T12:03:33.573Z,7.45
2023-03-04T12:06:13.264Z,4.35
2023-03-04T12:08:55.019Z,8.75
2023-03-04T12:11:33.387Z,4.90
2023-03-04T12:14:20.316Z,4.57
2023-03-04T12:17:17.120Z,4.47
2023-03-04T12:20:01.174Z,5.70
2023-03-04T12:22:41.881Z,6.53
2023-03-04T12:25:37.637Z,5.60
2023-03-04T12:28:23.447Z,9.07
2023-03-04T12:31:06.339Z,5.72
2023-03-04T12:33:45.962Z,5.55
2023-03-04T12:36:25.616Z,7.47
2023-03-04T12:39:01.201Z,6.07
2023-03-04T12:41:41.042Z,6.35
2023-03-04T12:44:18.198Z,3.72
2023-03-04T12:46:56.951Z,7.05
2023-03-04T12:49:38.133Z,6.82
2023-03-04T12:52:16.212Z,2.80
2023-03-04T12:54:47.705Z,5.10
2023-03-04T12:57:18.699Z,3.95
2023-03-04T12:59:53.216Z,3.50
2023-03-04T13:02:40.692Z,9.38
2023-03-04T13:05:20.742Z,7.38
2023-03-04T13:07:58.508Z,7.43
2023-03-04T13:10:27.727Z,7.95
2023-03-04T13:12:58.146Z,9.18
2023-03-04T13:15:32.634Z,4.97
2023-03-04T13:18:02.497Z,7.18
2023-03-04T13:20:39.316Z,9.07
2023-03-04T13:23:27.041Z,6.55
2023-03-04T13:26:21.465Z,4.80
2023-03-04T13:28:55.086Z,8.43
2023-03-04T13:31:27.047Z,3.22
2023-03-04T13:34:00.558Z,5.57
2023-03-04T13:39:30.745Z,4.68
2023-03-04T13:42:00.824Z,5.53
2023-03-04T13:44:59.990Z,9.95
2023-03-04T13:47:48.526Z,7.93
2023-03-04T13:50:36.510Z,7.80
2023-03-04T13:53:32.451Z,14.60
2023-03-04T13:56:09.826Z,5.95
2023-03-04T13:58:40.111Z,8.50
2023-03-04T14:01:25.777Z,8.77
2023-03-04T14:03:53.654Z,5.15
2023-03-04T14:06:24.964Z,10.63
2023-03-04T14:08:54.016Z,6.95
2023-03-04T14:11:29.572Z,2.05
2023-03-04T14:14:00.765Z,3.53
2023-03-04T14:16:30.670Z,2.60
2023-03-04T14:19:00.767Z,4.43
2023-03-04T14:21:29.447Z,8.50
2023-03-04T14:24:06.113Z,4.55
2023-03-04T14:26:34.710Z,2.90
2023-03-04T14:29:04.368Z,4.30
2023-03-04T14:31:35.616Z,3.90
2023-03-04T14:34:04.245Z,3.95
2023-03-04T14:36:34.550Z,4.95
2023-03-04T14:39:05.741Z,4.93
2023-03-04T14:41:36.442Z,5.22
2023-03-04T14:44:18.878Z,5.70
2023-03-04T14:47:05.939Z,5.65
2023-03-04T14:49:36.909Z,11.55
2023-03-04T14:52:04.751Z,4.85
2023-03-04T14:54:35.929Z,7.53
2023-03-04T14:57:23.929Z,8.55
2023-03-04T14:59:53.746Z,5.03
2023-03-04T15:02:33.145Z,5.95
2023-03-04T15:05:16.499Z,9.05
2023-03-04T15:07:50.784Z,8.80
2023-03-04T15:10:23.634Z,6.13
2023-03-04T15:12:55.878Z,7.70
2023-03-04T15:15:43.515Z,6.55
2023-03-04T15:18:30.252Z,7.18
2023-03-04T15:21:00.378Z,7.70
2023-03-04T15:23:29.108Z,7.10
2023-03-04T15:25:59.140Z,7.57
2023-03-04T15:28:28.449Z,10.18
2023-03-04T15:30:57.644Z,8.07
2023-03-04T15:33:25.881Z,5.57
2023-03-04T15:35:57.068Z,4.32
2023-03-04T15:38:25.265Z,4.30
2023-03-04T15:40:54.635Z,9.27
2023-03-04T15:43:23.783Z,6.47
2023-03-04T15:45:53.440Z,4.68
2023-03-04T15:48:22.623Z,3.33
2023-03-04T15:50:55.557Z,5.07
2023-03-04T15:53:28.785Z,9.27
2023-03-04T15:55:56.663Z,2.97
2023-03-04T15:58:24.459Z,5.47
2023-03-04T16:00:52.332Z,8.77
2023-03-04T16:03:23.080Z,11.25
2023-03-04T16:05:52.630Z,7.55
2023-03-04T16:08:22.175Z,3.85
2023-03-04T16:10:49.899Z,13.20
2023-03-04T16:13:19.647Z,9.50
2023-03-04T16:15:48.026Z,6.13
2023-03-04T16:18:16.869Z,4.85
2023-03-04T16:20:48.399Z,3.30
2023-03-04T16:23:19.987Z,5.22
2023-03-04T16:25:50.452Z,6.43
2023-03-04T16:28:18.826Z,9.40
2023-03-04T16:30:46.989Z,4.97
2023-03-04T16:33:16.290Z,6.45
2023-03-04T16:35:46.690Z,4.10
2023-03-04T16:38:22.227Z,5.63
2023-03-04T16:40:50.571Z,5.55
2023-03-04T16:43:18.343Z,7.18
2023-03-04T16:45:46.123Z,3.88
2023-03-04T16:48:13.873Z,3.67
2023-03-04T16:50:42.258Z,9.02
2023-03-04T16:53:24.803Z,12.25
2023-03-04T16:55:52.641Z,10.13
2023-03-04T16:58:20.409Z,5.55
2023-03-04T17:00:48.198Z,6.53
2023-03-04T17:03:15.938Z,3.80
2023-03-04T17:05:44.301Z,11.45
2023-03-04T17:08:12.056Z,4.00
2023-03-04T17:10:41.281Z,5.85
2023-03-04T17:13:09.676Z,4.22
2023-03-04T17:15:37.615Z,7.20
2023-03-04T17:18:05.548Z,6.05
2023-03-04T17:20:33.391Z,6.20
2023-03-04T17:23:01.134Z,9.13
2023-03-04T17:25:28.905Z,12.68
2023-03-04T17:27:58.063Z,7.65
2023-03-04T17:30:25.835Z,6.25
2023-03-04T17:32:53.582Z,6.65
2023-03-04T17:35:22.420Z,9.35
2023-03-04T17:37:50.655Z,9.82
2023-03-04T17:40:18.820Z,10.93
2023-03-04T17:42:46.580Z,8.07
2023-03-04T17:45:15.792Z,10.18
2023-03-04T17:47:43.530Z,20.70
2023-03-04T17:50:12.745Z,31.80
2023-03-04T17:52:40.536Z,35.92
2023-03-04T17:55:08.995Z,35.35
2023-03-04T17:57:37.588Z,12.25
2023-03-04T18:00:06.557Z,12.38
2023-03-04T18:02:35.644Z,11.57
2023-03-04T18:05:06.656Z,18.40
2023-03-04T18:07:34.468Z,21.25
2023-03-04T18:10:02.246Z,19.90
2023-03-04T18:12:30.133Z,16.35
2023-03-04T18:14:57.933Z,17.33
2023-03-04T18:17:26.471Z,16.55
2023-03-04T18:19:56.709Z,15.43
2023-03-04T18:22:24.526Z,24.58
2023-03-04T18:24:52.272Z,10.77
2023-03-04T18:27:20.073Z,7.57
2023-03-04T18:29:47.816Z,12.00
2023-03-04T18:32:15.737Z,8.43
2023-03-04T18:34:43.577Z,14.27
2023-03-04T18:37:12.692Z,9.57
2023-03-04T18:39:40.641Z,9.95
2023-03-04T18:42:08.444Z,14.50
2023-03-04T18:44:36.252Z,9.60
2023-03-04T18:47:04.021Z,6.70
2023-03-04T18:49:31.827Z,6.55
2023-03-04T18:51:59.622Z,4.93
2023-03-04T18:54:28.745Z,11.82
2023-03-04T18:56:59.852Z,9.93
2023-03-04T18:59:32.557Z,6.10
2023-03-04T19:02:04.809Z,11.98
2023-03-04T19:04:32.925Z,6.28
2023-03-04T19:07:00.699Z,8.32
2023-03-04T19:09:29.876Z,9.35
2023-03-04T19:11:57.729Z,7.80
2023-03-04T19:14:25.639Z,14.27
2023-03-04T19:16:53.452Z,17.83
2023-03-04T19:19:21.175Z,8.85
2023-03-04T19:21:48.872Z,7.68
2023-03-04T19:24:16.810Z,8.95
2023-03-04T19:26:45.984Z,12.45
2023-03-04T19:29:15.125Z,6.93
2023-03-04T19:31:43.383Z,7.95
2023-03-04T19:34:11.374Z,8.07
2023-03-04T19:36:39.622Z,6.82
2023-03-04T19:39:07.607Z,7.93
2023-03-04T19:41:35.432Z,7.63
2023-03-04T19:44:04.568Z,10.98
2023-03-04T19:46:32.470Z,7.60
2023-03-04T19:49:02.126Z,5.50
2023-03-04T19:51:32.157Z,14.25
2023-03-04T19:53:59.990Z,8.85
2023-03-04T19:56:27.736Z,16.48
2023-03-04T19:58:56.273Z,10.77
2023-03-04T20:01:28.183Z,7.68
2023-03-04T20:03:56.808Z,8.25
2023-03-04T20:06:26.807Z,9.27
2023-03-04T20:08:57.425Z,14.05
2023-03-04T20:11:25.535Z,8.00
2023-03-04T20:13:54.057Z,9.50
2023-03-04T20:16:22.320Z,10.63
2023-03-04T20:18:51.820Z,8.60
2023-03-04T20:21:19.947Z,7.07
2023-03-04T20:23:47.796Z,7.80
2023-03-04T20:26:15.613Z,10.05
2023-03-04T20:28:43.385Z,8.13
2023-03-04T20:31:13.096Z,8.88
2023-03-04T20:33:40.887Z,14.90
2023-03-04T20:36:10.245Z,9.15
2023-03-04T20:38:38.119Z,13.65
2023-03-04T20:41:06.539Z,8.25
2023-03-04T20:43:34.419Z,7.85
2023-03-04T20:46:28.712Z,8.05
2023-03-04T20:48:57.285Z,7.10
2023-03-04T20:51:26.484Z,8.20
2023-03-04T20:53:55.408Z,7.28
2023-03-04T20:56:24.145Z,10.13
2023-03-04T20:58:52.011Z,9.18
2023-03-04T21:01:19.889Z,7.03
2023-03-04T21:03:48.711Z,9.73
2023-03-04T21:06:17.044Z,9.88
2023-03-04T21:08:46.571Z,6.35
2023-03-04T21:11:15.057Z,7.05
2023-03-04T21:13:43.177Z,5.03
2023-03-04T21:16:15.630Z,16.02
2023-03-04T21:18:45.174Z,5.85
2023-03-04T21:21:15.571Z,6.55
2023-03-04T21:23:43.342Z,16.83
2023-03-04T21:26:12.474Z,6.20
2023-03-04T21:28:41.544Z,6.35
2023-03-04T21:31:14.871Z,8.18
2023-03-04T21:33:42.683Z,7.05
2023-03-04T21:36:11.192Z,7.10
2023-03-04T21:38:39.587Z,8.93
2023-03-04T21:41:07.613Z,5.85
2023-03-04T21:43:36.690Z,5.53
2023-03-04T21:46:05.384Z,4.78
2023-03-04T21:48:33.291Z,5.80
2023-03-04T21:51:05.479Z,7.05
2023-03-04T21:53:34.020Z,3.55
2023-03-04T21:56:02.080Z,5.00
2023-03-04T21:58:30.287Z,7.70
2023-03-04T22:00:59.487Z,6.70
2023-03-04T22:03:27.684Z,5.32
2023-03-04T22:05:59.107Z,7.63
2023-03-04T22:08:27.817Z,6.10
2023-03-04T22:10:55.522Z,5.47
2023-03-04T22:13:24.029Z,9.80
2023-03-04T22:15:51.783Z,4.53
2023-03-04T22:18:20.911Z,4.47
2023-03-04T22:20:48.680Z,5.20
2023-03-04T22:23:16.428Z,7.22
2023-03-04T22:25:44.191Z,5.20
2023-03-04T22:28:11.953Z,5.68
2023-03-04T22:30:39.922Z,4.50
2023-03-04T22:33:07.646Z,5.47
2023-03-04T22:35:40.693Z,5.82
2023-03-04T22:38:08.589Z,5.30
2023-03-04T22:40:36.326Z,6.30
2023-03-04T22:43:04.036Z,5.38
2023-03-04T22:45:32.976Z,5.40
2023-03-04T22:48:00.781Z,6.88
2023-03-04T22:50:29.041Z,6.65
2023-03-04T22:52:58.210Z,7.15
2023-03-04T22:55:25.909Z,7.03
2023-03-04T22:57:53.606Z,5.90
2023-03-04T23:00:23.647Z,5.03
2023-03-04T23:02:51.764Z,4.40
2023-03-04T23:05:20.814Z,6.97
2023-03-04T23:07:49.537Z,8.65
2023-03-04T23:10:22.559Z,10.35
2023-03-04T23:12:51.456Z,6.28
2023-03-04T23:15:20.822Z,5.60
2023-03-04T23:17:48.590Z,7.43
2023-03-04T23:20:19.949Z,6.38
2023-03-04T23:22:49.366Z,6.30
2023-03-04T23:25:18.657Z,7.30
2023-03-04T23:27:46.448Z,7.22
2023-03-04T23:30:17.378Z,8.32
2023-03-04T23:32:45.769Z,11.07
2023-03-04T23:35:13.605Z,6.53
2023-03-04T23:37:41.393Z,6.47
2023-03-04T23:40:10.668Z,8.73
2023-03-04T23:42:40.812Z,10.68
2023-03-04T23:45:09.531Z,7.13
2023-03-04T23:47:37.270Z,10.98
2023-03-04T23:50:06.935Z,8.75
2023-03-04T23:52:36.253Z,6.80
2023-03-04T23:55:04.002Z,7.22
2023-03-04T23:57:31.736Z,8.30
